Time;durP1;ratioP1;P1;durP2;ratioP2;P2;SDS_P1;SDS_P2;PMS_P1;PMS_P2;Temp;Humidity;BMP_temperature;BMP_pressure;BME280_temperature;BME280_humidity;BME280_pressure;Samples;Min_cycle;Max_cycle;Signal;HPM_P1;HPM_P2
2023/10/15 00:00:22;;;;;;;5.80;2.60;;;;;;;19.66;64.50;100228.96;109935;1280;21910;-64
2023/10/15 00:02:49;;;;;;;6.30;3.00;;;;;;;19.62;64.76;100226.35;109936;1283;21964;-64
2023/10/15 00:05:19;;;;;;;7.20;3.60;;;;;;;19.61;64.91;100224.11;109171;1280;1002351;-58
2023/10/15 00:07:45;;;;;;;4.60;2.90;;;;;;;19.60;65.15;100225.02;109949;1279;21934;-61
2023/10/15 00:10:12;;;;;;;5.80;3.10;;;;;;;19.60;65.11;100225.55;109957;1280;21984;-59
2023/10/15 00:12:38;;;;;;;6.30;3.10;;;;;;;19.60;65.21;100226.08;109949;1286;21865;-64
2023/10/15 00:15:13;;;;;;;6.70;3.70;;;;;;;19.61;65.38;100220.69;109942;1286;22023;-64
2023/10/15 00:17:40;;;;;;;7.80;3.60;;;;;;;19.61;65.58;100216.78;109945;1286;21959;-61
2023/10/15 00:20:10;;;;;;;7.30;3.20;;;;;;;19.61;65.76;100209.14;109916;1286;22027;-59
2023/10/15 00:22:38;;;;;;;9.10;2.90;;;;;;;19.60;65.71;100208.64;109940;1286;21933;-59
2023/10/15 00:25:09;;;;;;;7.00;3.40;;;;;;;19.59;65.92;100208.88;109952;1286;21930;-59
2023/10/15 00:27:36;;;;;;;6.10;3.40;;;;;;;19.59;66.08;100208.35;109934;1276;21907;-63
2023/10/15 00:30:12;;;;;;;8.70;3.50;;;;;;;19.59;66.21;100208.71;109953;1287;21869;-59
2023/10/15 00:32:44;;;;;;;7.00;3.20;;;;;;;19.59;66.15;100207.80;109931;1285;21915;-64
2023/10/15 00:35:11;;;;;;;8.00;3.30;;;;;;;19.63;66.15;100205.68;109943;1286;22008;-64
2023/10/15 00:37:40;;;;;;;7.20;3.40;;;;;;;19.65;66.04;100203.45;109962;1276;21911;-63
2023/10/15 00:40:16;;;;;;;5.80;3.30;;;;;;;19.65;65.99;100200.95;109952;1280;22005;-63
2023/10/15 00:42:45;;;;;;;5.70;3.50;;;;;;;19.65;65.93;100195.98;109951;1276;22248;-60
2023/10/15 00:45:15;;;;;;;9.50;3.30;;;;;;;19.64;65.83;100190.49;109940;1286;21943;-59
2023/10/15 00:47:42;;;;;;;5.40;3.60;;;;;;;19.63;65.90;100193.02;109940;1286;21962;-62
2023/10/15 00:50:09;;;;;;;6.20;3.80;;;;;;;19.63;66.09;100187.17;109871;1277;21984;-59
2023/10/15 00:52:39;;;;;;;5.20;3.50;;;;;;;19.61;65.97;100180.83;109948;1276;21961;-59
2023/10/15 00:55:11;;;;;;;8.60;4.10;;;;;;;19.61;66.21;100182.59;109938;1286;21930;-59
2023/10/15 00:57:42;;;;;;;10.00;3.90;;;;;;;19.60;66.10;100179.64;109877;1285;21954;-63
2023/10/15 01:00:36;;;;;;;7.00;3.70;;;;;;;19.59;66.28;100175.44;109927;1273;22348;-64
2023/10/15 01:03:01;;;;;;;6.40;3.90;;;;;;;19.57;66.27;100174.80;109947;1286;21973;-63
2023/10/15 01:05:27;;;;;;;7.00;3.40;;;;;;;19.59;66.41;100174.86;109953;1279;21972;-59
2023/10/15 01:07:54;;;;;;;8.00;3.80;;;;;;;19.62;66.32;100174.23;109835;1286;21949;-59
2023/10/15 01:10:37;;;;;;;5.30;3.60;;;;;;;19.64;66.70;100172.88;109969;1286;21933;-63
2023/10/15 01:13:15;;;;;;;7.30;3.70;;;;;;;19.66;66.79;100169.02;109957;1280;21955;-63
2023/10/15 01:15:42;;;;;;;6.00;3.90;;;;;;;19.68;66.88;100168.55;109929;1286;21934;-63
2023/10/15 01:18:10;;;;;;;7.20;4.60;;;;;;;19.70;67.28;100170.02;109956;1286;22002;-58
2023/10/15 01:20:40;;;;;;;7.50;4.40;;;;;;;19.72;67.46;100169.23;109943;1276;21945;-64
2023/10/15 01:23:05;;;;;;;5.20;3.00;;;;;;;19.75;67.66;100166.39;109958;1286;21982;-63
2023/10/15 01:25:32;;;;;;;7.80;4.10;;;;;;;19.79;67.54;100163.70;109950;1286;21926;-63
2023/10/15 01:28:00;;;;;;;5.10;3.60;;;;;;;19.82;67.70;100164.80;109946;1273;21951;-63
2023/10/15 01:30:27;;;;;;;8.00;3.80;;;;;;;19.83;67.97;100161.20;109959;1286;21916;-59
2023/10/15 01:32:54;;;;;;;6.80;4.00;;;;;;;19.81;68.13;100162.14;109966;1279;21944;-59
2023/10/15 01:35:20;;;;;;;9.20;3.80;;;;;;;19.81;68.01;100162.52;109956;1286;21938;-59
2023/10/15 01:37:59;;;;;;;5.40;3.70;;;;;;;19.81;68.07;100157.36;109951;1286;21958;-59
2023/10/15 01:40:39;;;;;;;6.70;3.80;;;;;;;19.78;67.90;100156.43;109952;1286;22303;-60
2023/10/15 01:43:12;;;;;;;6.00;3.70;;;;;;;19.76;67.61;100154.75;109958;1279;21964;-62
2023/10/15 01:45:40;;;;;;;6.90;4.10;;;;;;;19.75;67.59;100161.02;109945;1286;21913;-62
2023/10/15 01:48:13;;;;;;;8.20;4.10;;;;;;;19.73;67.23;100161.34;109928;1286;21877;-62
2023/10/15 01:53:07;;;;;;;6.90;4.00;;;;;;;19.68;66.81;100157.87;109950;1273;21981;-60
2023/10/15 01:55:36;;;;;;;9.00;4.90;;;;;;;19.65;66.47;100154.30;109947;1286;21912;-63
2023/10/15 01:58:04;;;;;;;5.60;3.70;;;;;;;19.60;66.22;100150.45;109947;1283;21963;-63
2023/10/15 02:00:34;;;;;;;9.40;4.50;;;;;;;19.56;66.05;100148.73;109960;1276;21923;-64
2023/10/15 02:03:00;;;;;;;7.00;3.70;;;;;;;19.52;65.87;100149.31;109943;1279;21955;-59
2023/10/15 02:05:29;;;;;;;7.30;4.20;;;;;;;19.49;65.65;100149.98;109958;1286;21907;-61
2023/10/15 02:07:57;;;;;;;6.50;3.70;;;;;;;19.45;65.50;100149.65;109941;1286;21926;-61
2023/10/15 02:10:23;;;;;;;8.30;3.60;;;;;;;19.41;65.35;100147.56;109959;1276;22311;-59
2023/10/15 02:12:59;;;;;;;16.10;4.60;;;;;;;19.38;65.24;100147.88;109944;1286;21921;-60
2023/10/15 02:15:26;;;;;;;6.90;3.50;;;;;;;19.34;65.14;100144.73;109940;1279;21921;-59
2023/10/15 02:17:54;;;;;;;5.10;3.20;;;;;;;19.27;64.99;100142.03;109943;1279;22016;-64
2023/10/15 02:20:42;;;;;;;8.10;3.60;;;;;;;19.20;65.00;100142.58;109957;1286;21948;-59
2023/10/15 02:23:08;;;;;;;8.70;3.40;;;;;;;19.16;65.18;100132.11;109933;1273;21840;-59
2023/10/15 02:25:37;;;;;;;8.50;4.20;;;;;;;19.14;65.28;100127.60;109929;1279;22087;-59
2023/10/15 02:28:04;;;;;;;5.30;3.40;;;;;;;19.12;65.47;100126.63;109945;1276;21957;-59
2023/10/15 02:30:32;;;;;;;8.10;3.60;;;;;;;19.12;65.66;100129.13;109938;1280;21933;-64
2023/10/15 02:33:01;;;;;;;6.70;3.40;;;;;;;19.13;65.68;100134.23;109954;1279;22023;-59
2023/10/15 02:35:32;;;;;;;8.20;3.40;;;;;;;19.13;65.65;100132.61;109936;1286;21918;-64
2023/10/15 02:37:58;;;;;;;5.30;3.30;;;;;;;19.14;65.75;100132.41;109935;1286;22001;-63
2023/10/15 02:40:35;;;;;;;6.30;3.30;;;;;;;19.14;65.71;100130.27;109931;1280;21867;-60
2023/10/15 02:43:06;;;;;;;6.30;3.00;;;;;;;19.11;65.49;100132.02;109934;1280;21866;-63
2023/10/15 02:45:35;;;;;;;6.60;3.80;;;;;;;19.09;65.59;100131.79;109932;1273;21975;-64
2023/10/15 02:48:10;;;;;;;7.60;3.00;;;;;;;19.07;65.66;100135.05;109911;1280;21950;-64
2023/10/15 02:50:36;;;;;;;7.80;3.50;;;;;;;19.07;65.64;100132.80;109903;1279;21923;-59
2023/10/15 02:53:05;;;;;;;4.90;3.30;;;;;;;19.03;65.72;100132.59;109888;1286;21987;-59
2023/10/15 02:55:36;;;;;;;4.90;2.50;;;;;;;19.03;66.08;100131.73;109942;1279;21943;-64
2023/10/15 02:58:02;;;;;;;7.70;3.50;;;;;;;19.05;66.30;100128.08;109914;1283;21944;-59
2023/10/15 03:00:28;;;;;;;8.10;3.20;;;;;;;19.07;66.35;100122.30;109905;1281;22013;-64
2023/10/15 03:02:55;;;;;;;6.20;3.30;;;;;;;19.08;66.41;100116.16;109909;1281;22386;-64
2023/10/15 03:05:25;;;;;;;7.00;3.50;;;;;;;19.09;66.42;100113.84;109916;1286;21957;-63
2023/10/15 03:07:54;;;;;;;5.60;3.50;;;;;;;19.07;66.58;100114.07;109912;1286;21860;-59
2023/10/15 03:10:22;;;;;;;10.30;3.90;;;;;;;19.07;66.84;100113.77;109917;1287;22030;-59
2023/10/15 03:12:48;;;;;;;5.20;3.20;;;;;;;19.07;66.99;100111.61;109883;1287;21968;-59
2023/10/15 03:15:15;;;;;;;9.00;3.80;;;;;;;19.09;67.19;100111.86;109908;1276;22006;-64
2023/10/15 03:17:42;;;;;;;6.00;3.60;;;;;;;19.13;67.30;100102.40;109929;1278;21954;-59
2023/10/15 03:22:51;;;;;;;7.00;3.50;;;;;;;19.19;67.41;100100.33;109901;1286;21934;-64
2023/10/15 03:25:18;;;;;;;8.50;3.70;;;;;;;19.20;67.67;100098.69;109895;1286;21935;-59
2023/10/15 03:27:47;;;;;;;7.60;4.30;;;;;;;19.17;67.82;100097.76;109906;1286;21864;-64
2023/10/15 03:30:13;;;;;;;6.90;3.30;;;;;;;19.15;67.93;100097.31;109909;1286;21976;-60
2023/10/15 03:32:44;;;;;;;7.50;4.20;;;;;;;19.14;68.17;100095.21;109925;1287;21879;-63
2023/10/15 03:35:27;;;;;;;;;;;;;;;19.14;68.42;100091.31;109930;1287;21946;-60
2023/10/15 03:37:59;;;;;;;7.20;3.70;;;;;;;19.14;68.48;100087.75;109922;1283;21915;-60
2023/10/15 03:40:32;;;;;;;8.00;4.10;;;;;;;19.17;68.55;100083.33;109930;1276;22103;-64
2023/10/15 03:43:06;;;;;;;7.20;3.90;;;;;;;19.20;68.59;100085.15;109911;1283;21995;-63
2023/10/15 03:45:47;;;;;;;8.00;3.90;;;;;;;19.22;68.75;100087.71;109889;1279;21942;-61
2023/10/15 03:48:14;;;;;;;7.20;4.30;;;;;;;19.22;68.65;100086.45;109909;1279;21849;-64
2023/10/15 03:50:53;;;;;;;9.80;3.60;;;;;;;19.22;68.43;100086.31;109858;1286;22021;-63
2023/10/15 03:53:27;;;;;;;10.60;4.50;;;;;;;19.22;68.67;100083.59;109946;1286;21936;-63
2023/10/15 03:56:01;;;;;;;6.50;4.20;;;;;;;19.22;68.43;100080.06;109940;1286;21938;-62
2023/10/15 03:58:31;;;;;;;6.30;4.50;;;;;;;19.22;68.56;100080.95;109952;1279;21946;-62
2023/10/15 04:01:22;;;;;;;6.40;4.10;;;;;;;19.20;68.51;100078.41;109935;1286;21955;-60
2023/10/15 04:03:49;;;;;;;6.80;4.60;;;;;;;19.20;68.56;100072.56;109950;1286;22021;-62
2023/10/15 04:06:16;;;;;;;6.30;4.30;;;;;;;19.18;68.38;100072.09;109964;1286;21930;-63
2023/10/15 04:11:30;;;;;;;7.30;4.20;;;;;;;19.15;68.51;100073.83;109946;1282;21978;-61
2023/10/15 04:13:57;;;;;;;7.60;4.60;;;;;;;19.16;68.67;100073.64;109963;1286;21937;-61
2023/10/15 04:16:23;;;;;;;6.10;4.20;;;;;;;19.23;68.24;100071.45;109958;1279;21931;-61
2023/10/15 04:18:48;;;;;;;8.10;4.20;;;;;;;19.26;68.07;100066.70;109962;1279;21988;-62
2023/10/15 04:21:17;;;;;;;8.90;5.00;;;;;;;19.25;68.28;100065.31;109937;1286;21940;-64
2023/10/15 04:23:49;;;;;;;7.20;3.80;;;;;;;19.26;68.51;100066.31;109937;1286;21928;-62
2023/10/15 04:26:14;;;;;;;6.90;4.30;;;;;;;19.27;68.52;100066.48;109965;1279;21946;-62
2023/10/15 04:28:41;;;;;;;8.30;4.30;;;;;;;19.28;68.68;100065.86;109955;1279;22485;-62
2023/10/15 04:31:12;;;;;;;8.20;4.20;;;;;;;19.30;68.79;100066.08;109967;1276;21937;-63
2023/10/15 04:33:41;;;;;;;6.20;3.90;;;;;;;19.33;68.87;100068.29;109948;1283;21893;-62
2023/10/15 04:36:09;;;;;;;8.20;4.40;;;;;;;19.35;69.00;100071.37;109945;1286;21948;-62
2023/10/15 04:38:38;;;;;;;7.50;4.00;;;;;;;19.36;69.11;100071.67;109943;1274;22275;-60
2023/10/15 04:41:04;;;;;;;9.90;5.00;;;;;;;19.37;69.15;100071.78;109949;1286;21942;-62
2023/10/15 04:43:40;;;;;;;7.70;4.40;;;;;;;19.40;69.28;100070.77;109963;1279;21854;-63
2023/10/15 04:46:07;;;;;;;7.40;4.10;;;;;;;19.42;69.57;100068.17;109935;1286;21909;-60
2023/10/15 04:48:36;;;;;;;7.50;4.40;;;;;;;19.43;69.54;100064.70;109928;1283;21931;-63
2023/10/15 04:51:11;;;;;;;5.70;4.20;;;;;;;19.45;69.60;100063.16;109952;1286;21819;-60
2023/10/15 04:53:37;;;;;;;6.00;3.90;;;;;;;19.47;69.77;100062.17;109958;1283;22016;-62
2023/10/15 04:56:04;;;;;;;5.30;4.30;;;;;;;19.50;70.11;100062.23;109931;1286;21945;-61
2023/10/15 04:58:30;;;;;;;5.50;4.00;;;;;;;19.51;70.10;100058.92;109944;1283;22011;-61
2023/10/15 05:00:58;;;;;;;7.60;4.10;;;;;;;19.53;70.22;100055.46;109838;1286;21945;-61
2023/10/15 05:03:24;;;;;;;6.20;3.90;;;;;;;19.56;70.43;100050.65;109906;1287;21880;-65
2023/10/15 05:05:51;;;;;;;6.40;3.90;;;;;;;19.61;70.72;100047.04;109874;1279;21930;-65
2023/10/15 05:08:17;;;;;;;6.50;4.00;;;;;;;19.64;70.68;100041.88;109898;1279;22023;-61
2023/10/15 05:10:49;;;;;;;5.50;3.50;;;;;;;19.69;70.85;100045.69;109893;1288;21955;-62
2023/10/15 05:13:16;;;;;;;6.20;3.80;;;;;;;19.73;71.17;100039.77;109889;1288;21939;-61
2023/10/15 05:15:47;;;;;;;5.60;3.50;;;;;;;19.78;71.49;100038.23;109889;1288;21938;-66
2023/10/15 05:18:15;;;;;;;8.00;3.60;;;;;;;19.84;71.53;100042.20;109882;1288;21939;-66
2023/10/15 05:20:42;;;;;;;5.20;3.00;;;;;;;19.89;71.68;100044.58;109876;1285;21940;-61
2023/10/15 05:23:08;;;;;;;8.30;4.00;;;;;;;19.96;71.80;100042.64;109897;1288;21928;-61
2023/10/15 05:25:33;;;;;;;6.60;3.50;;;;;;;19.96;72.44;100040.67;109890;1288;21997;-60
2023/10/15 05:28:02;;;;;;;7.80;3.50;;;;;;;19.97;73.12;100036.70;109876;1288;21951;-66
2023/10/15 05:30:29;;;;;;;5.70;3.60;;;;;;;20.02;73.43;100036.21;109884;1276;21972;-64
2023/10/15 05:32:54;;;;;;;5.00;3.30;;;;;;;20.08;73.61;100036.75;109882;1287;21968;-66
2023/10/15 05:35:20;;;;;;;7.90;3.70;;;;;;;20.15;73.84;100032.41;109889;1281;22483;-60
2023/10/15 05:37:45;;;;;;;5.90;3.10;;;;;;;20.23;74.05;100033.03;109873;1287;22066;-66
2023/10/15 05:40:15;;;;;;;6.20;3.40;;;;;;;20.31;73.99;100028.67;109948;1280;22006;-65
2023/10/15 05:42:41;;;;;;;;;;;;;;;20.41;74.29;100027.39;109946;1283;21960;-60
2023/10/15 05:45:07;;;;;;;3.50;2.60;;;;;;;20.50;74.09;100029.19;109917;1280;21874;-60
2023/10/15 05:47:34;;;;;;;6.40;2.60;;;;;;;20.59;74.72;100023.67;109932;1286;21994;-60
2023/10/15 05:50:00;;;;;;;9.10;3.20;;;;;;;20.68;75.11;100019.18;109967;1286;21942;-65
2023/10/15 05:52:25;;;;;;;4.20;2.50;;;;;;;20.75;74.92;100021.24;109938;1283;21910;-60
2023/10/15 05:54:53;;;;;;;5.60;2.70;;;;;;;20.83;75.10;100020.27;109956;1286;21921;-60
2023/10/15 05:57:22;;;;;;;5.00;2.70;;;;;;;20.92;75.31;100018.86;109947;1286;21901;-65
2023/10/15 05:59:48;;;;;;;7.40;2.90;;;;;;;20.99;75.32;100014.31;109950;1279;21946;-65
2023/10/15 06:02:14;;;;;;;5.60;2.50;;;;;;;21.06;75.19;100014.41;109941;1280;21984;-60
2023/10/15 06:04:43;;;;;;;5.60;2.50;;;;;;;21.14;75.21;100010.70;109953;1286;21902;-65
2023/10/15 06:07:10;;;;;;;5.10;2.50;;;;;;;21.22;75.34;100009.71;109967;1283;21877;-59
2023/10/15 06:09:36;;;;;;;8.00;3.00;;;;;;;21.30;75.63;100008.30;109947;1286;21912;-59
2023/10/15 06:12:01;;;;;;;4.60;2.40;;;;;;;21.40;76.27;100010.16;109955;1280;21928;-63
2023/10/15 06:14:30;;;;;;;6.80;2.50;;;;;;;21.50;76.66;100010.61;109957;1285;21997;-65
2023/10/15 06:16:56;;;;;;;4.50;2.30;;;;;;;21.61;76.39;100012.08;109945;1276;21846;-65
2023/10/15 06:19:22;;;;;;;6.00;2.30;;;;;;;21.70;76.25;100008.44;109922;1286;21933;-59
2023/10/15 06:21:47;;;;;;;6.30;2.30;;;;;;;21.83;76.44;100008.91;109938;1286;22424;-66
2023/10/15 06:24:14;;;;;;;10.00;2.50;;;;;;;21.93;76.11;100003.20;109942;1275;21939;-59
2023/10/15 06:26:40;;;;;;;6.80;2.60;;;;;;;22.04;76.09;100002.37;109954;1276;21904;-65
2023/10/15 06:29:06;;;;;;;4.40;2.00;;;;;;;22.15;75.93;100001.45;109954;1284;21949;-67
2023/10/15 06:31:32;;;;;;;5.50;2.10;;;;;;;22.27;75.78;100000.80;109948;1276;21927;-66
2023/10/15 06:33:57;;;;;;;5.00;2.30;;;;;;;22.39;75.79;100000.89;109899;1286;21961;-60
2023/10/15 06:36:23;;;;;;;3.80;2.00;;;;;;;22.50;75.84;99998.95;109957;1276;21956;-67
2023/10/15 06:38:50;;;;;;;7.20;2.00;;;;;;;22.61;75.16;99994.98;109940;1281;22005;-67
2023/10/15 06:41:15;;;;;;;4.20;2.00;;;;;;;22.72;74.74;99996.20;109929;1280;21956;-67
2023/10/15 06:43:41;;;;;;;5.90;2.20;;;;;;;22.83;74.55;100000.42;109940;1286;22183;-67
2023/10/15 06:46:07;;;;;;;5.00;1.70;;;;;;;22.95;74.09;99998.76;109941;1286;21836;-67
2023/10/15 06:48:34;;;;;;;3.30;2.00;;;;;;;23.05;73.78;99994.79;109903;1276;22040;-67
2023/10/15 06:51:04;;;;;;;5.00;1.90;;;;;;;23.17;73.82;99992.91;109869;1288;21987;-67
2023/10/15 06:53:31;;;;;;;5.90;1.80;;;;;;;23.29;73.31;99994.94;109889;1287;21910;-68
2023/10/15 06:55:56;;;;;;;7.70;2.00;;;;;;;23.39;72.45;99997.13;109864;1276;21937;-59
2023/10/15 06:58:22;;;;;;;6.30;2.10;;;;;;;23.45;71.98;99991.30;109891;1276;21911;-68
2023/10/15 07:00:48;;;;;;;4.90;2.00;;;;;;;23.54;72.13;99989.70;109895;1281;21936;-68
2023/10/15 07:03:15;;;;;;;7.70;2.20;;;;;;;23.66;71.92;99989.41;109905;1287;21942;-59
2023/10/15 07:05:43;;;;;;;5.20;2.10;;;;;;;23.78;71.63;99989.45;109879;1287;21999;-59
2023/10/15 07:08:09;;;;;;;5.20;2.10;;;;;;;23.90;71.46;99988.73;109895;1287;21929;-68
2023/10/15 07:10:36;;;;;;;7.00;2.00;;;;;;;23.97;70.73;99981.42;109893;1279;21949;-67
2023/10/15 07:13:02;;;;;;;2.80;1.50;;;;;;;24.04;70.49;99981.40;109916;1287;21940;-59
2023/10/15 07:15:29;;;;;;;8.00;3.00;;;;;;;24.13;70.09;99975.92;109880;1276;22067;-59
2023/10/15 07:17:55;;;;;;;6.50;2.40;;;;;;;24.20;69.55;99973.80;109891;1279;22000;-64
2023/10/15 07:20:29;;;;;;;6.10;2.40;;;;;;;24.27;69.28;99973.27;109897;1287;22398;-69
2023/10/15 07:22:56;;;;;;;5.10;1.70;;;;;;;24.34;68.92;99972.73;109853;1276;24386;-58
2023/10/15 07:25:29;;;;;;;5.70;2.10;;;;;;;24.41;68.53;99970.63;109877;1279;21932;-69
2023/10/15 07:27:56;;;;;;;9.90;2.10;;;;;;;24.48;68.50;99965.21;109912;1277;21944;-69
2023/10/15 07:30:21;;;;;;;4.90;1.60;;;;;;;24.58;68.49;99964.77;109907;1281;22166;-69
2023/10/15 07:32:47;;;;;;;5.40;1.80;;;;;;;24.70;67.94;99967.31;109898;1282;21998;-60
2023/10/15 07:35:13;;;;;;;6.00;2.00;;;;;;;24.79;67.46;99962.66;109894;1287;21942;-69
2023/10/15 07:37:43;;;;;;;6.20;2.00;;;;;;;24.89;67.09;99957.41;109904;1282;21977;-59
2023/10/15 07:40:18;;;;;;;3.60;1.80;;;;;;;25.02;66.53;99953.15;109945;1286;21920;-70
2023/10/15 07:42:45;;;;;;;3.40;1.70;;;;;;;25.12;66.33;99951.41;109944;1279;22399;-59
2023/10/15 07:45:12;;;;;;;4.90;2.30;;;;;;;25.21;66.21;99951.41;109929;1280;21939;-59
2023/10/15 07:47:37;;;;;;;4.80;1.80;;;;;;;25.30;65.77;99952.57;109930;1286;21992;-71
2023/10/15 07:50:34;;;;;;;3.80;1.70;;;;;;;25.38;65.10;99950.98;109889;1278;21972;-59
2023/10/15 07:52:59;;;;;;;3.80;1.70;;;;;;;25.43;64.00;99949.52;109857;1286;22337;-59
2023/10/15 07:55:26;;;;;;;4.70;1.80;;;;;;;25.47;63.52;99942.91;109937;1286;22032;-71
2023/10/15 07:57:52;;;;;;;4.60;1.80;;;;;;;25.51;62.78;99946.50;109942;1280;21934;-59
2023/10/15 08:00:23;;;;;;;5.60;1.90;;;;;;;25.55;62.62;99941.89;109777;1283;21967;-62
2023/10/15 08:02:52;;;;;;;6.60;1.70;;;;;;;25.60;62.21;99939.02;109907;1287;21978;-70
2023/10/15 08:05:20;;;;;;;3.40;1.50;;;;;;;25.69;62.16;99937.77;109853;1286;21949;-70
2023/10/15 08:07:50;;;;;;;4.50;1.70;;;;;;;25.79;62.01;99932.79;109907;1283;22014;-69
2023/10/15 08:10:17;;;;;;;5.00;1.70;;;;;;;25.88;61.31;99931.08;109892;1284;21961;-69
2023/10/15 08:12:44;;;;;;;4.00;1.50;;;;;;;25.95;60.53;99924.77;109913;1286;22408;-59
2023/10/15 08:15:10;;;;;;;4.20;1.70;;;;;;;26.05;60.95;99923.38;109911;1283;21961;-69
2023/10/15 08:17:36;;;;;;;4.20;1.50;;;;;;;26.23;60.16;99921.20;109919;1286;21970;-59
2023/10/15 08:20:04;;;;;;;10.90;2.30;;;;;;;26.38;59.52;99919.55;109921;1286;21979;-69
2023/10/15 08:22:29;;;;;;;5.00;1.70;;;;;;;26.51;58.98;99923.98;109903;1283;22154;-59
2023/10/15 08:24:55;;;;;;;6.60;1.80;;;;;;;26.56;57.80;99921.80;109920;1276;21877;-59
2023/10/15 08:27:21;;;;;;;5.30;2.30;;;;;;;26.57;57.06;99919.67;109940;1280;21915;-59
2023/10/15 08:29:47;;;;;;;3.90;1.60;;;;;;;26.59;55.79;99914.14;109944;1273;21924;-66
2023/10/15 08:32:18;;;;;;;6.60;1.90;;;;;;;26.61;55.20;99914.21;109898;1280;22014;-69
2023/10/15 08:34:44;;;;;;;3.50;1.40;;;;;;;26.65;54.88;99912.92;109887;1282;22108;-59
2023/10/15 08:37:10;;;;;;;5.70;1.80;;;;;;;26.69;55.20;99907.91;109931;1286;21989;-59
2023/10/15 08:39:38;;;;;;;5.50;1.80;;;;;;;26.80;55.63;99905.90;109935;1286;21937;-71
2023/10/15 08:42:11;;;;;;;5.30;1.80;;;;;;;26.97;55.09;99902.80;109932;1280;22022;-69
2023/10/15 08:44:38;;;;;;;4.50;1.50;;;;;;;27.10;53.68;99902.12;109950;1286;22017;-59
2023/10/15 08:47:04;;;;;;;14.50;2.00;;;;;;;27.20;53.28;99898.79;109913;1277;21999;-59
2023/10/15 08:49:32;;;;;;;2.90;1.30;;;;;;;27.24;52.04;99896.42;109869;1276;22149;-59
2023/10/15 08:51:58;;;;;;;6.10;1.60;;;;;;;27.29;51.21;99903.34;109926;1283;21939;-70
2023/10/15 08:54:25;;;;;;;5.60;1.70;;;;;;;27.32;50.86;99896.64;109939;1284;21929;-71
2023/10/15 08:56:54;;;;;;;4.60;1.60;;;;;;;27.37;50.84;99892.04;109896;1280;21959;-60
2023/10/15 08:59:23;;;;;;;26.30;16.00;;;;;;;27.44;49.75;99887.58;109943;1280;21914;-59
2023/10/15 09:01:50;;;;;;;46.10;27.20;;;;;;;27.53;49.82;99880.14;109913;1286;21929;-71
2023/10/15 09:04:15;;;;;;;67.60;46.20;;;;;;;27.64;50.79;99877.86;109932;1277;22400;-59
2023/10/15 09:06:41;;;;;;;13.60;5.50;;;;;;;27.71;49.74;99877.18;109934;1279;21941;-60
2023/10/15 09:09:07;;;;;;;7.70;4.20;;;;;;;27.75;48.83;99876.48;109918;1287;21860;-59
2023/10/15 09:11:33;;;;;;;5.40;2.00;;;;;;;27.80;49.00;99874.11;109885;1281;21938;-72
2023/10/15 09:14:00;;;;;;;8.00;2.70;;;;;;;27.86;49.39;99871.34;109904;1281;21959;-71
2023/10/15 09:16:26;;;;;;;8.60;3.50;;;;;;;27.94;49.09;99869.74;109855;1282;22371;-60
2023/10/15 09:18:52;;;;;;;11.30;5.50;;;;;;;28.05;48.40;99858.27;109882;1288;21973;-70
2023/10/15 09:21:26;;;;;;;19.50;8.50;;;;;;;28.19;47.92;99853.19;109849;1280;21957;-70
2023/10/15 09:23:51;;;;;;;6.80;2.70;;;;;;;28.24;48.27;99842.19;109894;1279;21987;-59
2023/10/15 09:26:17;;;;;;;6.70;3.00;;;;;;;28.25;48.74;99843.34;109902;1281;21953;-70
2023/10/15 09:28:43;;;;;;;8.60;4.40;;;;;;;28.28;48.86;99841.61;109864;1280;21960;-60
2023/10/15 09:31:09;;;;;;;12.30;4.50;;;;;;;28.35;49.03;99840.20;109924;1283;21935;-59
2023/10/15 09:33:35;;;;;;;13.30;5.90;;;;;;;28.44;48.48;99837.48;109917;1287;21939;-60
2023/10/15 09:36:04;;;;;;;5.30;2.10;;;;;;;28.51;48.48;99833.54;109906;1283;21931;-70
2023/10/15 09:38:31;;;;;;;6.70;2.20;;;;;;;28.54;48.55;99825.61;109870;1279;22379;-71
2023/10/15 09:40:58;;;;;;;5.10;2.50;;;;;;;28.64;48.43;99826.13;109877;1286;22400;-59
2023/10/15 09:43:36;;;;;;;7.40;2.60;;;;;;;28.75;47.90;99821.50;109923;1286;22120;-71
2023/10/15 09:46:03;;;;;;;8.90;2.30;;;;;;;28.80;47.49;99816.50;109904;1286;21956;-69
2023/10/15 09:48:29;;;;;;;11.30;3.40;;;;;;;28.88;47.78;99808.51;109908;1278;22428;-59
2023/10/15 09:50:59;;;;;;;14.30;4.40;;;;;;;29.01;48.00;99801.95;109918;1276;21970;-60
2023/10/15 09:53:27;;;;;;;14.00;5.80;;;;;;;29.15;47.91;99798.23;109862;1286;21959;-71
2023/10/15 09:55:53;;;;;;;10.20;3.30;;;;;;;29.27;47.41;99794.69;109825;1278;21938;-59
2023/10/15 09:58:19;;;;;;;7.50;2.20;;;;;;;29.28;46.74;99793.14;109783;1278;21976;-60
2023/10/15 10:03:47;;;;;;;11.70;2.60;;;;;;;29.27;45.91;99777.41;109866;1286;22316;-59
2023/10/15 10:06:37;;;;;;;19.80;2.80;;;;;;;29.21;45.91;99777.21;109794;1288;22295;-58
2023/10/15 10:09:21;;;;;;;6.50;2.00;;;;;;;29.21;46.02;99776.84;109886;1283;21975;-70
2023/10/15 10:12:13;;;;;;;5.90;1.60;;;;;;;29.28;45.83;99776.10;109958;1286;21865;-59
2023/10/15 10:14:58;;;;;;;15.80;2.80;;;;;;;29.35;45.44;99781.55;109784;1285;21873;-58
2023/10/15 10:17:25;;;;;;;6.10;1.70;;;;;;;29.38;45.13;99783.62;109839;1277;21906;-70
2023/10/15 10:19:52;;;;;;;6.20;1.60;;;;;;;29.39;44.75;99780.48;109754;1288;21868;-70
2023/10/15 10:22:27;;;;;;;8.10;2.40;;;;;;;29.38;44.65;99780.23;109855;1282;21903;-59
2023/10/15 10:24:53;;;;;;;4.20;2.00;;;;;;;29.44;44.79;99775.48;109835;1284;21931;-59
2023/10/15 10:27:19;;;;;;;10.40;1.90;;;;;;;29.49;44.19;99769.20;109846;1282;21935;-68
2023/10/15 10:29:54;;;;;;;6.90;1.50;;;;;;;29.52;44.40;99768.52;109818;1281;21962;-59
2023/10/15 10:32:23;;;;;;;6.00;1.60;;;;;;;29.62;44.45;99767.15;109842;1279;22202;-68
2023/10/15 10:35:15;;;;;;;5.30;1.80;;;;;;;29.68;44.30;99768.52;109788;1279;22549;-60
2023/10/15 10:38:17;;;;;;;8.40;2.60;;;;;;;29.73;44.22;99764.87;109775;1286;21963;-69
2023/10/15 10:41:03;;;;;;;6.20;2.10;;;;;;;29.71;43.06;99768.41;109744;1289;21866;-58
2023/10/15 10:43:29;;;;;;;5.20;1.50;;;;;;;29.67;43.15;99764.29;109756;1282;22009;-58
2023/10/15 10:45:59;;;;;;;7.70;1.90;;;;;;;29.67;42.36;99759.56;109822;1285;21955;-59
2023/10/15 10:48:27;;;;;;;7.80;1.80;;;;;;;29.68;43.07;99757.48;109822;1282;21912;-70
2023/10/15 10:51:19;;;;;;;9.10;1.70;;;;;;;29.71;42.90;99760.48;109855;1286;21969;-58
2023/10/15 10:54:15;;;;;;;41.40;4.70;;;;;;;29.72;42.83;99756.38;109848;1282;21952;-69
2023/10/15 10:56:40;;;;;;;30.90;3.60;;;;;;;29.73;42.40;99757.54;109762;1287;21876;-69
2023/10/15 10:59:13;;;;;;;11.90;3.00;;;;;;;29.78;42.44;99756.09;109832;1288;21933;-58
2023/10/15 11:01:40;;;;;;;5.90;1.70;;;;;;;29.81;41.66;99755.79;109841;1279;21975;-69
2023/10/15 11:04:06;;;;;;;8.90;3.70;;;;;;;29.79;42.23;99752.71;109836;1286;21949;-69
2023/10/15 11:06:38;;;;;;;4.70;1.70;;;;;;;29.83;42.42;99754.72;109851;1282;21852;-68
2023/10/15 11:09:09;;;;;;;5.60;1.50;;;;;;;29.85;42.31;99751.04;109845;1282;21966;-58
2023/10/15 11:11:35;;;;;;;66.80;6.90;;;;;;;29.86;41.81;99753.83;109818;1288;21944;-71
2023/10/15 11:14:01;;;;;;;7.80;2.10;;;;;;;29.89;41.88;99751.94;109909;1282;21960;-69
2023/10/15 11:16:27;;;;;;;5.40;1.90;;;;;;;29.90;42.09;99748.57;109916;1276;22000;-59
2023/10/15 11:18:53;;;;;;;6.20;1.90;;;;;;;29.91;42.28;99749.92;109857;1277;21979;-69
2023/10/15 11:21:19;;;;;;;4.80;2.40;;;;;;;29.93;42.30;99737.70;109913;1278;21967;-69
2023/10/15 11:23:45;;;;;;;8.60;2.20;;;;;;;29.98;41.78;99742.33;109941;1281;21931;-67
2023/10/15 11:26:11;;;;;;;6.70;1.70;;;;;;;29.94;41.88;99736.80;109945;1279;21992;-59
2023/10/15 11:28:37;;;;;;;8.10;2.30;;;;;;;29.88;41.78;99743.00;109739;1276;261479;-68
2023/10/15 11:31:02;;;;;;;4.60;1.90;;;;;;;29.86;42.24;99743.90;109949;1280;21982;-68
2023/10/15 11:33:28;;;;;;;7.80;2.50;;;;;;;29.88;41.93;99745.33;109909;1286;22167;-59
2023/10/15 11:35:55;;;;;;;5.60;2.20;;;;;;;29.88;42.27;99740.95;109933;1274;21927;-69
2023/10/15 11:38:20;;;;;;;6.40;2.20;;;;;;;29.90;42.22;99739.04;109934;1284;21926;-59